Tiempo atmosférico en la estación meteorológica de La Aldea De San Nicolas, Las Palmas (13 m.)



Fecha
DESCASC
Temp. máxima en grados centígrados (hora)
DESCASC
Temp. mínima en grados centígrados (hora)
DESCASC
Temp. media en grados centígrados
DESCASC
Racha de viento máxima en m/sg (hora)
DESCASC
Velocidad máxima media en intervalos de 10 minutos(hora)
DESCASC
Precipitaciones diarias en mm
DESCASC
Precipitaciones de 00:00 a 06:00 en mm
DESCASC
Precipitaciones de 06:00 a 12:00 en mm
DESCASC
Precipitaciones de 12:00 a 18:00 en mm
DESCASC
Precipitaciones de 18:00 a 24:00 en mm
DESCASC

Gráficas

Temp. máximas Temp. mínimas Temp. medias Precipitaciones Rachas de viento máximas Velocidades máximas media en intervalos de 10 minutos

Datos horarios

Fecha y hora oficial Temperatura (ºC) Velocidad del viento (km/h) Dirección del viento Racha (km/h) Dirección de racha Precipitación (mm) Presión (hPa) Tendencia (hPa) Humedad (%)
2020-04-08 23:00:00 24.4 17 Nordeste 33 Este 0 1018.2 1.8 25
2020-04-08 22:00:00 21.5 10 Nordeste 44 Norte 0 1017.9 1.2 59
2020-04-08 21:00:00 20.9 28 Norte 49 Nordeste 0 1017.1 1.1 68
2020-04-08 20:00:00 23.3 16 Nordeste 49 Nordeste 0 1016.4 0.7 58
2020-04-08 19:00:00 22.3 33 Nordeste 59 Norte 0 1016.7 0.2 68
2020-04-08 18:00:00 23.1 37 Norte 58 Norte 0 1016 -0.8 65
2020-04-08 17:00:00 23.5 34 Norte 61 Norte 0 1015.7 -2 64
2020-04-08 16:00:00 22.6 38 Norte 58 Norte 0 1016.5 -1.7 68
2020-04-08 15:00:00 23.5 40 Norte 64 Norte 0 1016.8 -1.8 65
2020-04-08 14:00:00 24.3 17 Noroeste 39 Norte 0 1017.7 -0.6 61
2020-04-08 13:00:00 24.3 18 Norte 40 Norte 0 1018.2 -0.3 60
2020-04-08 12:00:00 23.1 23 Nordeste 47 Nordeste 0 1018.6 0.4 64
2020-04-08 11:00:00 22.2 26 Nordeste 54 Nordeste 0 1018.3 0 67
2020-04-08 10:00:00 21.1 24 Nordeste 40 Nordeste 0 1018.5 0.8 69
2020-04-08 09:00:00 19.2 16 Este 35 Este 0 1018.2 0.7 75
2020-04-08 08:00:00 16.9 6 Sudeste 27 Nordeste 0 1018.3 0.4 81
2020-04-08 07:00:00 19.2 14 Nordeste 36 Nordeste 0 1017.7 -0.7 76
2020-04-08 06:00:00 19.3 14 Este 50 Norte 0 1017.5 -1.3 74
2020-04-08 05:00:00 19.7 24 Norte 51 Nordeste 0 1017.9 -1.4 74
2020-04-08 04:00:00 19.9 30 Nordeste 57 Nordeste 0 1018.4 -1.3 75
2020-04-08 03:00:00 19.9 28 Norte 42 Norte 0 1018.8 -0.7 74
2020-04-08 02:00:00 20 15 Nordeste 48 Nordeste 0 1019.3 0 71
2020-04-08 01:00:00 20 26 Norte 55 Noroeste 0 1019.7 1.1 76
2020-04-08 00:00:00 19.9 29 Norte 49 Norte 0 1019.5 1.4 77
2020-04-07 23:00:00 20 35 Norte 61 Norte 0 1019.3 1.5 76
2020-04-07 22:00:00 20.4 25 Norte 48 Norte 0 1018.6 0.7 74
2020-04-07 21:00:00 20.3 28 Norte 49 Nordeste 0 1018.1 0.3 77
2020-04-07 20:00:00 21.1 25 Norte 41 Norte 0 1017.8 -0.2 75
2020-04-07 19:00:00 22.8 25 Norte 37 Norte 0 1017.9 -0.4 67
2020-04-07 18:00:00 24.9 17 Nordeste 26 Nordeste 0 1017.8 -1.1 60
2020-04-07 17:00:00 23.5 18 Norte 31 Norte 0 1018 -1.5 65
2020-04-07 16:00:00 24.6 15 Norte 26 Norte 0 1018.3 -1.8 58
2020-04-07 15:00:00 25.2 15 Norte 32 Norte 0 1018.9 -1.3 59
2020-04-07 14:00:00 24.9 17 Norte 34 Norte 0 1019.5 -0.4 60
2020-04-07 13:00:00 23.6 11 Norte 35 Norte 0 1020.1 0.4 63
2020-04-07 12:00:00 23.5 12 Norte 28 Noroeste 0 1020.2 0.8 61
2020-04-07 11:00:00 22.1 10 Oeste 19 Oeste 0 1019.9 1.1 64
2020-04-07 10:00:00 20.7 7 Oeste 13 Oeste 0 1019.7 1.2 70
2020-04-07 09:00:00 17.8 5 Sudeste 9 Sur 0 1019.4 0.8 72
2020-04-07 08:00:00 16.1 7 Sudeste 35 Nordeste 0 1018.8 0 76
2020-04-07 07:00:00 18.6 17 Este 42 Nordeste 0 1018.5 -0.4 70
2020-04-07 06:00:00 19.9 24 Nordeste 51 Nordeste 0 1018.6 -1.1 68
2020-04-07 05:00:00 19.8 27 Nordeste 49 Nordeste 0 1018.8 -1.4 70
2020-04-07 04:00:00 19.5 19 Nordeste 38 Nordeste 0 1018.9 -1.6 76
2020-04-07 03:00:00 18.6 8 Este 31 Este 0 1019.7 -0.9 77
2020-04-07 02:00:00 18.4 9 Este 31 Norte 0 1020.2 -0.2 76
2020-04-07 01:00:00 20.1 17 Nordeste 32 Nordeste 0 1020.5 0.6 72
2020-04-07 00:00:00 20.1 15 Nordeste 36 Nordeste 0 1020.6 1.5 74
2020-04-06 23:00:00 20.3 22 Nordeste 43 Norte 0 1020.4 1.5 77
2020-04-06 22:00:00 20.5 26 Norte 44 Norte 0 1019.9 1 75
2020-04-06 21:00:00 20.9 23 Norte 44 Norte 0 1019.1 0.2 72
2020-04-06 20:00:00 21.7 22 Norte 49 Nordeste 0 1018.9 -0.1 69
2020-04-06 19:00:00 22.4 31 Norte 50 Norte 0 1018.9 -0.6 71
2020-04-06 18:00:00 23.5 28 Norte 41 Norte 0 1018.9 -1.2 65
2020-04-06 17:00:00 24.4 24 Norte 40 Norte 0 1019 -1.4 58
2020-04-06 16:00:00 24.7 18 Norte 33 Norte 0 1019.5 -1.1 56
2020-04-06 15:00:00 24 17 Norte 35 Nordeste 0 1020.1 -0.9 59
2020-04-06 14:00:00 24.1 21 Norte 39 Norte 0 1020.4 -0.6 61
2020-04-06 13:00:00 23.8 21 Norte 39 Norte 0 1020.6 0.1 63
2020-04-06 12:00:00 23.4 23 Norte 39 Nordeste 0 1021 0.9 62
2020-04-06 11:00:00 22.2 13 Norte 39 Nordeste 0 1021 1.6 66
2020-04-06 10:00:00 21.3 12 Norte 26 Nordeste 0 1020.5 1.9 71
2020-04-06 09:00:00 20 10 Sudeste 34 Nordeste 0 1020.1 2 74
2020-04-06 08:00:00 19.9 18 Nordeste 35 Nordeste 0 1019.4 1.3 71
2020-04-06 07:00:00 20.1 20 Nordeste 38 Nordeste 0 1018.6 0.4 71
2020-04-06 06:00:00 19 12 Este 32 Este 0 1018.1 -0.9 73
2020-04-06 05:00:00 20.4 15 Norte 32 Norte 0 1018.1 -1.4 70
2020-04-06 04:00:00 20.4 19 Nordeste 31 Nordeste 0 1018.2 -1.6 70
2020-04-06 03:00:00 20.5 16 Nordeste 32 Nordeste 0 1019 -1 73
2020-04-06 02:00:00 20.4 18 Nordeste 36 Nordeste 0 1019.5 0 77
2020-04-06 01:00:00 19 5 Sudeste 8 Este 0 1019.8 1.1 80
2020-04-06 00:00:00 20.3 5 Este 27 Nordeste 0 1020 1.9 76
2020-04-05 23:00:00 20.8 17 Nordeste 34 Norte 0 1019.5 2.1 78
2020-04-05 22:00:00 21.2 14 Nordeste 30 Norte 0 1018.7 1.8 74
2020-04-05 21:00:00 21.7 17 Norte 31 Norte 0 1018.1 1.1 69
2020-04-05 20:00:00 22.6 15 Norte 24 Norte 0 1017.4 0.5 66
2020-04-05 19:00:00 24 11 Norte 22 Noroeste 0 1016.9 0.1 60
2020-04-05 18:00:00 24 14 Oeste 21 Oeste 0 1017 -0.3 64
2020-04-05 17:00:00 24 11 Noroeste 23 Noroeste 0 1016.9 -0.8 64
2020-04-05 16:00:00 23.8 15 Oeste 22 Oeste 0 1016.8 -0.8 65
2020-04-05 15:00:00 22.7 14 Noroeste 23 Oeste 0 1017.3 -0.3 70
2020-04-05 14:00:00 23 14 Noroeste 27 Oeste 0 1017.7 0.5 70
2020-04-05 13:00:00 23 17 Noroeste 26 Noroeste 0 1017.6 0.5 71
2020-04-05 12:00:00 22.3 15 Noroeste 24 Noroeste 0 1017.6 1.1 75
2020-04-05 11:00:00 21.7 10 Oeste 14 Oeste 0 1017.2 1.8 77
2020-04-05 10:00:00 20.4 6 Noroeste 11 Noroeste 0 1017.1 2.2 83
2020-04-05 09:00:00 17.7 3 Nordeste 10 Sudeste 0 1016.5 1.6 83
2020-04-05 08:00:00 16.1 3 Oeste 11 Este 0 1015.4 1.3 86
2020-04-05 07:00:00 17 10 Sudeste 12 Este 0 1014.9 0.9 84
2020-04-05 06:00:00 18.2 5 Sudeste 11 Sudeste 0 1014.9 0.5 84
2020-04-05 05:00:00 18.3 5 Noroeste 13 Sudeste 0 1014.1 -0.2 87
2020-04-05 04:00:00 17.7 9 Este 12 Este 0 1014 -0.7 84
2020-04-05 03:00:00 18.3 5 Sur 9 Oeste 0 1014.4 0 84
2020-04-05 02:00:00 18.6 3 Sudeste 13 Sur 0 1014.3 0.1 78
2020-04-05 01:00:00 19.8 5 Nordeste 10 Nordeste 0 1014.7 1.6 80
2020-04-05 00:00:00 19.8 3 Este 19 Sudoeste 0 1014.4 2.2 69
2020-04-04 23:00:00 20.7 9 Sudoeste 23 Oeste 0 1014.2 2.6 69
2020-04-04 22:00:00 21 5 Oeste 18 Sudoeste 0 1013.1 1.9 63
2020-04-04 21:00:00 21.7 11 Oeste 28 Oeste 0 1012.2 1.7 58
2020-04-04 20:00:00 22.1 20 Oeste 32 Oeste 0 1011.6 1.2 59
2020-04-04 19:00:00 22.9 22 Oeste 34 Oeste 0 1011.2 0.4 62
2020-04-04 18:00:00 24.5 19 Oeste 38 Sudoeste 0 1010.5 -0.2 51
2020-04-04 17:00:00 24.3 22 Oeste 38 Oeste 0 1010.4 -0.7 53
2020-04-04 16:00:00 24.2 22 Oeste 37 Oeste 0 1010.8 -0.3 54
2020-04-04 15:00:00 24.1 28 Oeste 39 Oeste 0 1010.7 -0.5 55
2020-04-04 14:00:00 25.8 20 Oeste 34 Sudoeste 0 1011.1 -0.2 44
2020-04-04 13:00:00 25.2 20 Oeste 32 Oeste 0 1011.1 0.5 46
2020-04-04 12:00:00 23.4 18 Oeste 25 Oeste 0 1011.2 1.4 57
2020-04-04 11:00:00 22.5 10 Oeste 22 Oeste 0 1011.3 2.4 57
2020-04-04 10:00:00 20.9 10 Oeste 23 Oeste 0 1010.6 2.2 67
2020-04-04 09:00:00 20.4 9 Oeste 24 Sudoeste 0 1009.8 1.4 71
2020-04-04 08:00:00 19.5 9 Sur 22 Sur 0 1008.9 0.5 70
2020-04-04 07:00:00 19.8 14 Sur 29 Sur 0 1008.4 -0.3 70
2020-04-04 06:00:00 19.9 9 Sur 21 Sudoeste 0 1008.4 -0.7 70
2020-04-04 05:00:00 20.2 5 Sudoeste 20 Sudoeste 0 1008.4 -1.2 70
2020-04-04 04:00:00 20.3 8 Oeste 19 Sudoeste 0 1008.7 -1.4 73
2020-04-04 03:00:00 20.6 8 Sudoeste 22 Sur 0 1009.1 -0.9 71
2020-04-04 02:00:00 20.8 6 Oeste 20 Sudoeste 0 1009.6 0 74
2020-04-04 01:00:00 20.9 7 Sur 23 Sur 0 1010.1 0.9 70
2020-04-04 00:00:00 20.7 9 Sudoeste 29 Sudoeste 0 1010 1.2 70
2020-04-03 23:00:00 20.8 13 Sur 29 Sudoeste 0 1009.6 1.1 72
2020-04-03 22:00:00 21.1 15 Sudoeste 43 Sudoeste 0 1009.2 0.6 70
2020-04-03 21:00:00 21.5 11 Norte 27 Sur 0 1008.8 0.6 67
2020-04-03 20:00:00 21.9 13 Sur 32 Sudoeste 0 1008.5 0.1 61
2020-04-03 19:00:00 22.9 13 Sudoeste 33 Sur 0 1008.6 -0.4 56
2020-04-03 18:00:00 25.2 9 Sudeste 39 Oeste 0 1008.2 -1.1 47
2020-04-03 17:00:00 23.6 19 Oeste 35 Sudoeste 0 1008.4 -2.3 52
2020-04-03 16:00:00 23.4 13 Oeste 51 Sudoeste 0 1009 -2.2 47
2020-04-03 15:00:00 23.6 26 Oeste 41 Oeste 0 1009.3 -1.8 49
2020-04-03 14:00:00 22.9 19 Oeste 42 Oeste 0 1010.7 -0.6 50
2020-04-03 13:00:00 22.4 25 Oeste 41 Oeste 0 1011.2 -0.8 51
2020-04-03 12:00:00 22.1 23 Sudoeste 36 Oeste 0 1011.1 -0.4 53
2020-04-03 11:00:00 20.9 14 Oeste 22 Oeste 0 1011.3 0.2 60
2020-04-03 10:00:00 19.5 3 Sur 12 Oeste 0 1012 0.8 66
2020-04-03 09:00:00 17 6 Sudeste 10 Sudeste 0 1011.5 0.1 78
2020-04-03 08:00:00 16.1 8 Sudeste 11 Sudeste 0 1011.1 -0.5 80
2020-04-03 07:00:00 17.9 2 Sudeste 7 Noroeste 0 1011.2 -0.8 72
2020-04-03 06:00:00 18.3 5 Noroeste 13 Noroeste 0 1011.4 -1.2 72
2020-04-03 05:00:00 18.3 9 Oeste 14 Oeste 0 1011.6 -1.9 72
2020-04-03 04:00:00 18.4 7 Oeste 10 Oeste 0 1012 -2.3 69
2020-04-03 03:00:00 18.6 7 Oeste 15 Noroeste 0 1012.6 -2.2 68
2020-04-03 02:00:00 18.6 8 Oeste 12 Oeste 0 1013.5 -1.5 71
2020-04-03 01:00:00 18.7 4 Oeste 10 Oeste 0 1014.3 -0.2 71
2020-04-03 00:00:00 19.1 5 Noroeste 14 Norte 0 1014.8 0.5 69
2020-04-02 23:00:00 19.4 4 Noroeste 12 Norte 0 1015 1.3 68
2020-04-02 22:00:00 19.4 9 Nordeste 17 Norte 0 1014.5 0.6 68
2020-04-02 21:00:00 19.5 12 Norte 22 Nordeste 0 1014.3 0.3 67
2020-04-02 20:00:00 20.2 12 Nordeste 22 Noroeste 0 1013.7 -1 65
2020-04-02 19:00:00 20.3 11 Norte 18 Norte 0 1013.9 -1.1 64
2020-04-02 18:00:00 20.9 7 Noroeste 16 Noroeste 0 1014 -1.5 62
2020-04-02 17:00:00 21.8 6 Norte 23 Oeste 0 1014.7 -1.4 59
2020-04-02 16:00:00 22 13 Oeste 23 Sudoeste 0 1015 -1.5 60
2020-04-02 15:00:00 21.4 13 Oeste 24 Oeste 0 1015.5 -1.4 61
2020-04-02 14:00:00 22.5 17 Oeste 27 Oeste 0 1016.1 -0.4 57
2020-04-02 13:00:00 21.7 18 Oeste 26 Oeste 0 1016.5 0.9 59
2020-04-02 12:00:00 21.1 18 Oeste 27 Oeste 0 1016.9 1.8 62
2020-04-02 11:00:00 20.2 16 Oeste 25 Oeste 0 1016.5 1.7 64
2020-04-02 10:00:00 19 3 Este 10 Este 0 1015.6 1.5 61
2020-04-02 09:00:00 15 6 Sudeste 10 Sudeste 0 1015.1 1.4 77
2020-04-02 08:00:00 12.4 4 Este 11 Sudeste 0 1014.8 0.7 84
2020-04-02 07:00:00 12.8 10 Sudeste 12 Sudeste 0 1014.1 -0.3 82
2020-04-02 06:00:00 13.2 5 Sudeste 15 Este 0 1013.7 -1.2 80
2020-04-02 05:00:00 13.8 10 Sudeste 13 Sudeste 0 1014.1 -1.8 80
2020-04-02 04:00:00 14.3 9 Sudeste 12 Sudeste 0 1014.4 -1.9 77
2020-04-02 03:00:00 15.4 7 Sudeste 23 Norte 0 1014.9 -1.4 74
2020-04-02 02:00:00 18.1 12 Nordeste 28 Nordeste 0 1015.9 -0.3 68
2020-04-02 01:00:00 18.5 13 Norte 27 Nordeste 0 1016.3 0.3 64
2020-04-02 00:00:00 18.6 18 Nordeste 32 Nordeste 0 1016.3 1 68
2020-04-01 23:00:00 19.2 17 Nordeste 28 Nordeste 0 1016.2 1.4 62
2020-04-01 22:00:00 19.3 15 Norte 29 Norte 0 1016 1.6 62
2020-04-01 21:00:00 19.6 18 Norte 33 Norte 0 1015.3 1 64
2020-04-01 20:00:00 20.4 21 Norte 32 Norte 0 1014.8 0.5 62
2020-04-01 19:00:00 22.4 19 Norte 31 Norte 0 1014.4 -0.1 51
2020-04-01 18:00:00 24 12 Nordeste 33 Norte 0 1014.3 -0.8 47
2020-04-01 17:00:00 22.8 18 Norte 33 Nordeste 0 1014.3 -1.2 53
2020-04-01 16:00:00 23 20 Norte 32 Norte 0 1014.5 -1.2 48
2020-04-01 15:00:00 23 21 Norte 37 Norte 0 1015.1 -1.2 54
2020-04-01 14:00:00 22.5 24 Norte 37 Nordeste 0 1015.5 -0.8 56
2020-04-01 13:00:00 22.6 19 Norte 34 Nordeste 0 1015.7 -0.3 53
2020-04-01 12:00:00 21.6 15 Norte 28 Norte 0 1016.3 0.9 54
2020-04-01 11:00:00 20.9 14 Norte 22 Norte 0 1016.3 1.5 52
2020-04-01 10:00:00 19.8 3 Este 8 Sudeste 0 1016 2 63
2020-04-01 09:00:00 16.2 4 Este 10 Sudeste 0 1015.4 1.5 78
2020-04-01 08:00:00 15.2 8 Este 35 Nordeste 0 1014.8 0.6 78
2020-04-01 07:00:00 18 19 Nordeste 35 Nordeste 0 1014 -0.3 72
2020-04-01 06:00:00 18.1 20 Nordeste 31 Nordeste 0 1013.9 -0.7 70
2020-04-01 05:00:00 18.1 13 Nordeste 28 Norte 0 1014.2 -0.6 68
2020-04-01 04:00:00 18.5 18 Norte 32 Norte 0 1014.3 -0.7 72
2020-04-01 03:00:00 18.8 19 Norte 31 Norte 0 1014.6 -1 74
2020-04-01 02:00:00 19.1 15 Norte 28 Norte 0 1014.8 -0.3 73
2020-04-01 01:00:00 19 18 Norte 31 Norte 0 1015 0.5 74
2020-04-01 00:00:00 19.3 17 Norte 28 Norte 0 1015.6 1.8 73
2020-03-31 23:00:00 19.6 6 Norte 14 Norte 0 1015.1 2 76
2020-03-31 22:00:00 19.7 7 Noroeste 13 Oeste 0 1014.5 1.5 78
2020-03-31 21:00:00 19.8 10 Oeste 21 Oeste 0 1013.8 1.2 77
2020-03-31 20:00:00 21 14 Oeste 28 Oeste 0 1013.1 0.8 70
2020-03-31 19:00:00 22.3 20 Oeste 30 Oeste 0 1013 0.6 64
2020-03-31 18:00:00 23 17 Oeste 30 Oeste 0 1012.6 -0.3 61
2020-03-31 17:00:00 23.7 17 Oeste 27 Oeste 0 1012.3 -0.5 56
2020-03-31 16:00:00 23.5 19 Oeste 35 Oeste 0 1012.4 -1 58
2020-03-31 15:00:00 22.9 25 Oeste 34 Oeste 0 1012.9 -0.2 59
2020-03-31 14:00:00 22.5 23 Oeste 33 Oeste 0 1012.8 0.1 57
2020-03-31 13:00:00 23.3 16 Oeste 24 Sudoeste 0 1013.4 0.8 55
2020-03-31 12:00:00 21.6 13 Oeste 22 Sudoeste 0 1013.1 0.9 61
2020-03-31 11:00:00 21.4 10 Oeste 16 Oeste 0 1012.7 0.8 56
2020-03-31 10:00:00 19.6 4 Este 8 Este 0 1012.6 1.1 62
2020-03-31 09:00:00 15.3 7 Este 10 Este 0 1012.2 1 81
2020-03-31 08:00:00 13.5 5 Este 12 Sudeste 0 1011.9 0.5 84
2020-03-31 07:00:00 14 8 Este 10 Este 0 1011.5 -0.1 84
2020-03-31 06:00:00 14.3 5 Este 9 Sudeste 0 1011.2 -0.5 82
2020-03-31 05:00:00 14.9 8 Sudeste 11 Sudeste 0 1011.4 -0.6 81
2020-03-31 04:00:00 16.1 6 Sudeste 24 Nordeste 0 1011.6 -0.7 76
2020-03-31 03:00:00 18.7 10 Nordeste 30 Este 0 1011.7 -1 68
2020-03-31 02:00:00 16.7 9 Este 23 Este 0 1012 -0.9 79
2020-03-31 01:00:00 15.9 10 Sudeste 13 Sudeste 0 1012.3 -0.6 80
2020-03-31 00:00:00 16.4 8 Este 10 Este 0 1012.7 0.3 77
2020-03-30 23:00:00 17 4 Este 7 Sudeste 0 1012.9 1 74
2020-03-30 22:00:00 18.2 2 Sur 24 Oeste 0 1012.9 1.1 69
2020-03-30 21:00:00 18.7 18 Oeste 31 Oeste 0 1012.4 0.6 70
2020-03-30 20:00:00 19.7 22 Oeste 35 Sudoeste 0 1011.9 -0.2 68
2020-03-30 19:00:00 20.6 24 Oeste 37 Oeste 0 1011.8 -0.8 64
2020-03-30 18:00:00 22.2 26 Oeste 37 Oeste 0 1011.8 -1.4 53
2020-03-30 17:00:00 21.3 27 Oeste 45 Sudoeste 0 1012.1 -1.6 61
2020-03-30 16:00:00 21.4 28 Oeste 45 Oeste 0 1012.6 -1.6 62
2020-03-30 15:00:00 21.9 26 Oeste 43 Oeste 0 1013.2 -1.8 59
2020-03-30 14:00:00 21.5 28 Oeste 40 Oeste 0 1013.7 -1.5 62
2020-03-30 13:00:00 21.8 21 Oeste 33 Oeste 0 1014.2 -0.9 57
2020-03-30 12:00:00 21.4 15 Oeste 23 Oeste 0 1015 0.2 57
2020-03-30 11:00:00 20.2 13 Oeste 21 Oeste 0 1015.2 0.7 61
2020-03-30 10:00:00 18.4 3 Sudeste 10 Este 0 1015.1 1 65
2020-03-30 09:00:00 14 5 Este 9 Este 0 1014.8 1 84
2020-03-30 08:00:00 12.6 7 Este 9 Este 0 1014.5 0.2 86
2020-03-30 07:00:00 12.6 5 Este 11 Este 0 1014.1 -1 87
2020-03-30 06:00:00 13.6 9 Este 12 Este 0 1013.8 -2 86
2020-03-30 05:00:00 14 9 Este 13 Este 0 1014.3 -2.1 84
2020-03-30 04:00:00 14 6 Este 10 Sudeste 0 1015.1 -1.5 84
2020-03-30 03:00:00 14.5 8 Este 10 Este 0 1015.8 -1.1 82
2020-03-30 02:00:00 14.9 6 Este 10 Sudeste 0 1016.4 -0.5 82
2020-03-30 01:00:00 15.6 8 Este 9 Sudeste 0 1016.6 -0.2 79
2020-03-30 00:00:00 16.2 4 Este 9 Sudeste 0 1016.9 0.5 76
2020-03-29 23:00:00 17 5 Sudeste 7 Sudeste 0 1016.9 0.3 73
2020-03-29 22:00:00 18.4 5 Oeste 9 Oeste 0 1016.8 0.1 71
2020-03-29 21:00:00 18.9 6 Oeste 10 Noroeste 0 1016.4 -0.1 68
2020-03-29 20:00:00 19.9 8 Oeste 17 Noroeste 0 1016.6 0 64
2020-03-29 19:00:00 21.1 10 Noroeste 17 Oeste 0 1016.7 -0.7 60
2020-03-29 18:00:00 21.6 12 Oeste 21 Oeste 0 1016.5 -1.5 55
2020-03-29 17:00:00 22.1 14 Oeste 22 Oeste 0 1016.6 -1.9 47
2020-03-29 16:00:00 22.2 12 Oeste 20 Oeste 0 1017.4 -1.1 49
2020-03-29 15:00:00 21.5 13 Oeste 24 Oeste 0 1018 -0.7 54
2020-03-29 14:00:00 21.8 13 Oeste 22 Oeste 0 1018.5 -0.1 55
2020-03-29 13:00:00 20.8 13 Oeste 23 Oeste 0 1018.5 0.1 57
2020-03-29 12:00:00 20.3 14 Oeste 21 Oeste 0 1018.7 0.6 57
2020-03-29 11:00:00 19.9 12 Oeste 18 Oeste 0 1018.6 0.8 54
2020-03-29 10:00:00 17.8 8 Este 10 Este 0 1018.4 1 57
2020-03-29 09:00:00 13.7 6 Este 9 Este 0 1018.1 0.9 77
2020-03-29 08:00:00 11.6 8 Este 12 Este 0 1017.8 0.6 83
2020-03-29 07:00:00 11.8 9 Sudeste 12 Sudeste 0 1017.4 -0.2 85
2020-03-29 06:00:00 12.1 8 Este 11 Este 0 1017.2 -0.9 84
2020-03-29 05:00:00 12.6 8 Este 9 Este 0 1017.2 -1.4 84
2020-03-29 04:00:00 12.9 8 Este 10 Este 0 1017.6 -1.1 83
2020-03-29 00:00:00 14.8 6 Este 10 Sudeste 0 1018.7 1.1 80
2020-03-28 23:00:00 15.8 5 Sudeste 11 Sudeste 0 1018.5 1.4 76
2020-03-28 22:00:00 17.2 4 Este 24 Nordeste 0 1018.3 1.6 71
2020-03-28 21:00:00 18.4 17 Norte 32 Nordeste 0 1017.6 1.3 69
2020-03-28 20:00:00 18.8 15 Nordeste 37 Nordeste 0 1017.1 1.2 68
2020-03-28 19:00:00 20 11 Norte 32 Nordeste 0 1016.7 1 60
2020-03-28 18:00:00 21.2 18 Nordeste 38 Nordeste 0 1016.3 0.5 52
2020-03-28 17:00:00 21.7 13 Nordeste 36 Norte 0 1015.9 0 56
2020-03-28 16:00:00 21.3 21 Norte 37 Norte 0 1015.7 -0.5 54
2020-03-28 15:00:00 21.5 18 Norte 39 Nordeste 0 1015.8 -0.5 56
2020-03-28 14:00:00 21.4 18 Norte 37 Noroeste 0 1015.9 -0.7 54
2020-03-28 13:00:00 21.6 13 Norte 47 Nordeste 0 1016.2 -0.4 54
2020-03-28 12:00:00 21.5 15 Nordeste 45 Este 0 1016.3 0.3 58
2020-03-28 11:00:00 21.4 12 Nordeste 35 Este 0 1016.6 1 55
2020-03-28 10:00:00 20.1 12 Nordeste 26 Nordeste 0 1016.6 1.5 53
2020-03-28 09:00:00 18.3 16 Nordeste 22 Nordeste 0 1016 1.4 63
2020-03-28 08:00:00 14.8 8 Sudeste 18 Este 0 1015.6 1.4 77
2020-03-28 07:00:00 15.7 10 Este 22 Este 0 1015.1 1.1 71
2020-03-28 06:00:00 15.3 9 Este 25 Este 0 1014.6 0.9 72
2020-03-28 05:00:00 16.1 9 Este 24 Este 0 1014.2 0.3 69
2020-03-28 04:00:00 16.5 11 Este 30 Este 0 1014 -0.4 71
2020-03-28 03:00:00 16.7 17 Este 32 Este 0 1013.7 -0.8 74
2020-03-28 02:00:00 17.3 9 Sudeste 28 Este 0 1013.9 -0.5 73
2020-03-28 01:00:00 17.4 7 Este 27 Oeste 0 1014.4 0.5 75
2020-03-28 00:00:00 17.4 10 Sudoeste 37 Oeste 0 1014.5 1.5 75
2020-03-27 23:00:00 18.1 14 Este 36 Este 0.2 1014.4 1.9 78
2020-03-27 22:00:00 17.8 17 Norte 38 Nordeste 0 1013.9 1.8 69
2020-03-27 21:00:00 18.8 5 Nordeste 12 Sur 0 1013 1.1 63
2020-03-27 20:00:00 19.2 7 Sur 22 Oeste 0 1012.5 0.7 60
2020-03-27 19:00:00 19.7 14 Oeste 30 Noroeste 0 1012.1 0.1 58
2020-03-27 18:00:00 20.3 17 Oeste 30 Sudoeste 0 1011.9 -0.3 64
2020-03-27 17:00:00 21.7 17 Oeste 24 Oeste 0 1011.8 -0.8 58
2020-03-27 16:00:00 21.6 14 Noroeste 21 Oeste 0 1012 -1.2 57
2020-03-27 15:00:00 21.7 11 Oeste 21 Norte 0 1012.2 -1.4 52
2020-03-27 14:00:00 20.8 21 Norte 27 Norte 0 1012.6 -1.3 59
2020-03-27 13:00:00 22.2 14 Norte 21 Norte 0 1013.2 -0.8 53
2020-03-27 12:00:00 22.9 12 Nordeste 26 Nordeste 0 1013.6 0.3 48
2020-03-27 11:00:00 20.1 12 Norte 23 Norte 0 1013.9 1.3 57
2020-03-27 10:00:00 19.3 14 Este 32 Este 0 1014 1.8 64
2020-03-27 09:00:00 17.8 9 Este 21 Sudeste 0 1013.3 1.1 69
2020-03-27 08:00:00 16.6 4 Sur 12 Sudoeste 0 1012.6 0.7 73
2020-03-27 07:00:00 15.7 4 Este 14 Sudeste 0 1012.2 0.1 77
2020-03-27 06:00:00 15.2 4 Este 9 Sudeste 0 1012.2 -0.4 84
2020-03-27 05:00:00 15.5 4 Este 13 Sudeste 0.2 1011.9 -1.2 82
2020-03-27 04:00:00 15.8 4 Nordeste 9 Sudoeste 0 1012.1 -1.4 83
2020-03-27 03:00:00 15.9 3 Este 9 Sudeste 0 1012.6 -1.2 76
2020-03-27 02:00:00 15.5 4 Nordeste 10 Este 0 1013.1 -0.7 75
2020-03-27 01:00:00 15.5 8 Sudeste 10 Sudeste 0 1013.5 -0.2 74
2020-03-27 00:00:00 16.3 5 Sudoeste 9 Sudeste 0 1013.8 0.4 71
2020-03-26 23:00:00 17.4 8 Sudeste 28 Este 0 1013.8 0.9 67
2020-03-26 22:00:00 18.2 7 Este 24 Este 0 1013.7 0.9 63
2020-03-26 21:00:00 18.6 12 Sudeste 24 Este 0 1013.4 0.6 62
2020-03-26 20:00:00 18.4 10 Sudoeste 19 Noroeste 0 1012.9 0.2 63
2020-03-26 19:00:00 19.2 8 Noroeste 21 Nordeste 0 1012.8 0.1 58
2020-03-26 18:00:00 20.2 9 Norte 24 Norte 0 1012.8 -0.6 54
2020-03-26 17:00:00 21.1 11 Norte 25 Nordeste 0 1012.7 -1.1 52
2020-03-26 16:00:00 21.6 10 Nordeste 28 Noroeste 0 1012.7 -1.8 53
2020-03-26 15:00:00 20.1 14 Norte 22 Norte 0 1013.4 -1.5 56
2020-03-26 14:00:00 21 9 Noroeste 19 Norte 0 1013.8 -1.4 54
2020-03-26 13:00:00 20 10 Oeste 20 Oeste 0 1014.5 -0.4 58
2020-03-26 12:00:00 20.7 13 Oeste 22 Oeste 0 1014.9 0.4 58
2020-03-26 11:00:00 20.2 13 Oeste 21 Oeste 0 1015.2 1 60
2020-03-26 10:00:00 19.4 10 Oeste 18 Oeste 0 1014.9 0.9 62
2020-03-26 09:00:00 18.4 5 Este 9 Sudeste 0 1014.5 1 59
2020-03-26 08:00:00 14.7 8 Este 9 Este 0 1014.2 1 79
2020-03-26 07:00:00 13.5 5 Este 9 Este 0 1014 0.6 80
2020-03-26 06:00:00 14.3 5 Este 10 Este 0 1013.5 -0.4 76
2020-03-26 05:00:00 14.7 5 Este 10 Sudeste 0 1013.2 -1.4 76
2020-03-26 04:00:00 15.1 3 Este 7 Sudeste 0 1013.4 -1.9 74
2020-03-26 03:00:00 16.3 4 Sudeste 10 Este 0 1013.9 -1.8 70
2020-03-26 02:00:00 16.3 5 Este 10 Este 0 1014.6 -1.3 70
2020-03-26 01:00:00 16 3 Este 8 Este 0 1015.3 -0.5 72
2020-03-26 00:00:00 16.4 6 Este 21 Nordeste 0 1015.7 0.4 71
2020-03-25 23:00:00 17.4 12 Nordeste 31 Este 0 1015.9 1.1 64
2020-03-25 22:00:00 17.6 20 Nordeste 34 Nordeste 0 1015.8 1 65
2020-03-25 21:00:00 17.9 17 Nordeste 45 Este 0 1015.3 0.8 64
2020-03-25 20:00:00 18.2 10 Sudeste 44 Este 0 1014.8 0.2 62
2020-03-25 19:00:00 19.4 11 Sudeste 29 Este 0 1014.8 0 59
2020-03-25 18:00:00 20.6 17 Norte 30 Nordeste 0 1014.5 -0.9 56
2020-03-25 17:00:00 22 17 Nordeste 33 Nordeste 0 1014.6 -1.3 51
2020-03-25 16:00:00 23 16 Nordeste 35 Nordeste 0 1014.8 -1.3 44
2020-03-25 15:00:00 21.6 14 Nordeste 34 Nordeste 0 1015.4 -1.1 48
2020-03-25 14:00:00 20.8 17 Nordeste 40 Nordeste 0 1015.9 -0.8 57
2020-03-25 13:00:00 22.3 17 Nordeste 39 Norte 0 1016.1 -0.4 48
2020-03-25 12:00:00 20.9 17 Norte 32 Nordeste 0 1016.5 0 56
2020-03-25 11:00:00 20.8 18 Nordeste 27 Norte 0 1016.7 0.8 57
2020-03-25 10:00:00 19.3 13 Nordeste 23 Nordeste 0 1016.5 1 60
2020-03-25 09:00:00 18.3 12 Norte 23 Norte 0 1016.5 1.4 64
2020-03-25 08:00:00 16.7 3 Sudeste 8 Este 0 1015.9 1.3 72
2020-03-25 07:00:00 16.7 8 Este 22 Nordeste 0 1015.5 0.9 69
2020-03-25 06:00:00 17.2 9 Nordeste 20 Sudeste 0 1015.1 0.1 67
2020-03-25 05:00:00 17.3 8 Este 26 Este 0 1014.6 -0.7 67
2020-03-25 04:00:00 17.4 14 Sudeste 27 Este 0 1014.6 -1 67
2020-03-25 03:00:00 17.6 15 Este 33 Este 0 1015 -1.2 67
2020-03-25 02:00:00 17.3 12 Sudeste 25 Sudeste 0 1015.3 -1.4 72
2020-03-25 01:00:00 17.6 14 Sudeste 28 Este 0 1015.6 -1.1 70
2020-03-25 00:00:00 17.5 12 Este 31 Este 0 1016.2 0 69
2020-03-24 23:00:00 17.8 15 Este 27 Este 0 1016.7 1 66
2020-03-24 22:00:00 18.1 17 Sudeste 40 Este 0 1016.7 1.4 68
2020-03-24 21:00:00 18.4 10 Sudeste 30 Este 0 1016.2 1.1 69
2020-03-24 20:00:00 18.8 9 Sudeste 36 Sudeste 0 1015.7 1 67
2020-03-24 19:00:00 19.4 15 Sudeste 40 Este 0 1015.3 0.7 62
2020-03-24 18:00:00 21.1 15 Este 36 Este 0 1015.1 0.2 56
2020-03-24 17:00:00 23.6 12 Sudeste 35 Este 0 1014.7 -0.6 48
2020-03-24 16:00:00 22.3 17 Sudeste 41 Este 0 1014.6 -1.3 59
2020-03-24 15:00:00 22.6 19 Sudeste 46 Este 0 1014.9 -1.7 54
2020-03-24 14:00:00 23.2 15 Sudeste 42 Sudeste 0 1015.3 -1.3 55
2020-03-24 13:00:00 23 24 Este 43 Este 0 1015.9 -0.4 50
2020-03-24 12:00:00 21.5 15 Sudeste 37 Este 0 1016.6 0.9 56
2020-03-24 11:00:00 19.5 14 Este 35 Este 0 1016.6 1.6 64
2020-03-24 10:00:00 18.3 6 Sudeste 30 Este 0 1016.3 1.7 70
2020-03-24 09:00:00 17.9 12 Sudeste 42 Sudoeste 0 1015.7 1.4 74
2020-03-24 08:00:00 16.9 14 Oeste 37 Oeste 0 1015 1.1 75
2020-03-24 07:00:00 16.3 12 Sur 31 Este 0.2 1014.6 1.2 75
2020-03-24 06:00:00 15.8 13 Sur 35 Oeste 0.6 1014.3 0.5 83
2020-03-24 05:00:00 15.8 9 Sur 34 Noroeste 1.6 1013.9 0.4 83
2020-03-24 04:00:00 17.3 10 Sudoeste 39 Oeste 0 1013.4 -0.5 72
2020-03-24 03:00:00 17.3 21 Oeste 48 Oeste 0 1013.8 -0.3 72
2020-03-24 02:00:00 17.6 16 Sudoeste 47 Noroeste 0 1013.5 -0.7 74
2020-03-24 01:00:00 17.4 14 Sudeste 33 Sur 0 1013.9 0.3 72
2020-03-24 00:00:00 17.7 20 Oeste 44 Noroeste 0 1014.1 1.2 69
2020-03-23 23:00:00 17.6 10 Oeste 33 Sudeste 0 1014.2 2.1 69
2020-03-23 22:00:00 17.5 18 Sudoeste 51 Oeste 0 1013.6 1.9 70
2020-03-23 21:00:00 17.7 13 Sudoeste 43 Este 0 1012.9 1.6 68
2020-03-23 20:00:00 17.5 14 Sur 35 Sudeste 0 1012.1 1.2 68
2020-03-23 19:00:00 18.2 11 Sudeste 33 Sudoeste 0 1011.7 1.1 65
2020-03-23 18:00:00 18.3 10 Sudeste 45 Este 0.2 1011.3 1.7 72
2020-03-23 17:00:00 19.1 19 Sudeste 49 Sudeste 0 1010.9 0.8 62
2020-03-23 16:00:00 18 20 Sudeste 62 Este 0 1010.6 -0.4 69
2020-03-23 15:00:00 17.9 18 Sudeste 39 Sudeste 0.2 1009.6 -2.3 71
2020-03-23 14:00:00 18.4 12 Sudoeste 48 Este 0 1010.1 -0.6 66
2020-03-23 13:00:00 17.4 18 Este 47 Este 1.2 1011 0.4 72
2020-03-23 12:00:00 14.9 30 Este 57 Este 0.4 1011.9 2.3 77
2020-03-23 11:00:00 15.9 16 Sudoeste 54 Oeste 0.6 1010.7 2 72
2020-03-23 10:00:00 14 30 Oeste 55 Oeste 2.2 1010.6 1.6 86
2020-03-23 09:00:00 14.8 15 Sudeste 69 Oeste 2.6 1009.6 1.5 80
2020-03-23 08:00:00 15.9 19 Oeste 55 Sudoeste 0 1008.7 0.3 67
2020-03-23 07:00:00 16.3 28 Oeste 57 Noroeste 0.8 1009 -0.2 58
2020-03-23 06:00:00 15.5 18 Oeste 72 Oeste 0 1008.1 -0.9 68
2020-03-23 05:00:00 16.5 18 Noroeste 42 Noroeste 0 1008.4 -1.4 59
2020-03-23 04:00:00 16.5 21 Noroeste 51 Noroeste 0 1009.2 -1 61
2020-03-23 03:00:00 17 10 Oeste 35 Noroeste 0 1009 -1.9 58
2020-03-23 02:00:00 17.3 18 Noroeste 42 Norte 0 1009.8 -1.4 58
2020-03-23 01:00:00 17.2 10 Oeste 45 Noroeste 0 1010.2 -1.7 63
2020-03-23 00:00:00 17.7 13 Noroeste 32 Noroeste 0 1010.9 -0.6 56
2020-03-22 23:00:00 17.6 7 Sudeste 32 Noroeste 0 1011.2 -0.2 57
2020-03-22 22:00:00 18.1 8 Noroeste 39 Noroeste 0 1011.9 0.2 57
2020-03-22 21:00:00 18.1 9 Sudeste 18 Este 0 1011.5 0.1 53
2020-03-22 20:00:00 18.3 6 Sur 30 Nordeste 0 1011.4 0 55
2020-03-22 19:00:00 17.8 18 Nordeste 40 Nordeste 0 1011.7 0.2 71
2020-03-22 18:00:00 19.7 14 Oeste 40 Oeste 0 1011.4 -1.1 58
2020-03-22 17:00:00 20.3 20 Oeste 35 Oeste 0 1011.4 -2 55
2020-03-22 16:00:00 21.3 21 Oeste 34 Oeste 0 1011.5 -2.6 49
2020-03-22 15:00:00 21.7 17 Oeste 28 Noroeste 0 1012.5 -3 45
2020-03-22 14:00:00 21.7 14 Noroeste 25 Noroeste 0 1013.4 -2.9 41
2020-03-22 13:00:00 22.7 8 Norte 25 Nordeste 0 1014.1 -2.8 38
2020-03-22 12:00:00 21.8 11 Nordeste 27 Nordeste 0 1015.5 -1 42
2020-03-22 11:00:00 21.7 11 Este 26 Este 0 1016.3 0.2 45
2020-03-22 10:00:00 19.1 6 Sudeste 29 Sudeste 0 1016.9 1 58
2020-03-22 09:00:00 18 9 Sudeste 32 Este 0 1016.5 0.8 56
2020-03-22 08:00:00 17.1 17 Sudeste 31 Este 0 1016.1 0.2 59
2020-03-22 07:00:00 16.6 12 Este 26 Este 0 1015.9 -0.3 56
2020-03-22 06:00:00 16.5 11 Sur 32 Este 0 1015.7 -1.2 59
2020-03-22 05:00:00 16.7 10 Sudeste 28 Este 0 1015.9 -1.8 63
2020-03-22 04:00:00 16.8 17 Este 38 Noroeste 0 1016.2 -1.9 65
2020-03-22 03:00:00 17.1 7 Sur 23 Sudeste 0 1016.9 -1.8 60
2020-03-22 02:00:00 17.1 9 Sur 27 Este 0 1017.7 -1.2 58
2020-03-22 01:00:00 17.2 14 Este 28 Este 0 1018.1 -1.2 52
2020-03-22 00:00:00 17.3 13 Sudeste 54 Este 0 1018.7 0 57
2020-03-21 23:00:00 17.1 18 Este 45 Sudeste 0 1018.9 0.5 66
2020-03-21 22:00:00 16.9 16 Sudeste 35 Este 0 1019.3 1.4 76
2020-03-21 21:00:00 18 15 Sudeste 37 Sudeste 0 1018.7 0.9 56
2020-03-21 20:00:00 18 22 Este 50 Este 0 1018.4 0.6 56
2020-03-21 19:00:00 19.2 23 Este 47 Este 0 1017.9 0.1 48
2020-03-21 18:00:00 21.1 17 Sudeste 41 Este 0 1017.8 -0.3 41
2020-03-21 17:00:00 22 18 Sudeste 46 Nordeste 0 1017.8 -1.1 37
2020-03-21 16:00:00 21.6 15 Sudoeste 40 Este 0 1017.8 -2.5 45
2020-03-21 15:00:00 22.4 18 Sudeste 54 Este 0 1018.1 -2.6 37
2020-03-21 14:00:00 22.4 19 Este 60 Este 0 1018.9 -2.2 42
2020-03-21 13:00:00 22.8 23 Este 58 Este 0 1020.3 -1.1 40
2020-03-21 12:00:00 22 24 Este 51 Este 0 1020.7 -0.1 42
2020-03-21 11:00:00 20.3 15 Este 34 Este 0 1021.1 1 48
2020-03-21 10:00:00 17.9 18 Este 45 Este 0 1021.4 1.9 55
2020-03-21 09:00:00 17.5 13 Este 41 Este 0 1020.8 1.7 51
2020-03-21 08:00:00 17 16 Este 37 Este 0 1020.1 1.3 52
2020-03-21 07:00:00 16.9 18 Sudeste 37 Sudeste 0 1019.5 0.8 52
2020-03-21 06:00:00 16.8 17 Este 32 Este 0 1019.1 0.6 53
2020-03-21 05:00:00 16.6 14 Sudeste 33 Este 0 1018.8 -0.5 54
2020-03-21 04:00:00 16.8 20 Este 35 Este 0 1018.7 -0.9 60
2020-03-21 03:00:00 16.8 19 Este 39 Este 0 1018.5 -1.4 54
2020-03-21 02:00:00 17 16 Este 37 Este 0 1019.3 -0.8 62
2020-03-21 01:00:00 17.4 20 Este 48 Este 0 1019.6 -0.5 64
2020-03-21 00:00:00 17.9 21 Este 42 Este 0 1019.9 0.2 67
2020-03-20 23:00:00 17.9 17 Este 43 Este 0 1020.1 1.1 70
2020-03-20 22:00:00 17.8 18 Este 44 Este 0 1020.1 1.7 71
2020-03-20 21:00:00 18.1 18 Este 37 Este 0 1019.7 1.4 69
2020-03-20 20:00:00 18.3 18 Este 48 Este 0 1019 1.1 66
2020-03-20 19:00:00 19.1 23 Este 46 Este 0 1018.4 0.5 67
2020-03-20 18:00:00 20.2 18 Este 40 Este 0 1018.3 0.3 62
2020-03-20 17:00:00 23.2 20 Este 46 Sudeste 0 1017.9 -0.7 46
2020-03-20 16:00:00 23.8 18 Sudeste 48 Sudeste 0 1017.9 -0.9 43
2020-03-20 15:00:00 25.1 22 Sudeste 49 Este 0 1018 -1.1 44
2020-03-20 14:00:00 25.6 18 Sudeste 51 Este 0 1018.6 -0.4 43
2020-03-20 13:00:00 25 24 Sudeste 59 Este 0 1018.8 -0.2 43
2020-03-20 12:00:00 24.2 24 Sudeste 49 Sudeste 0 1019.1 0.9 44
2020-03-20 11:00:00 23.3 24 Sudeste 51 Este 0 1019 1.5 46
2020-03-20 10:00:00 21.4 20 Este 53 Este 0 1019 2.5 55
2020-03-20 09:00:00 20.1 18 Este 49 Este 0 1018.2 2.1 52
2020-03-20 08:00:00 18 23 Este 45 Este 0 1017.5 1.8 67
2020-03-20 07:00:00 18.4 23 Este 40 Nordeste 0 1016.5 0.6 68
2020-03-20 06:00:00 18.3 18 Este 37 Este 0 1016.1 -0.6 68
2020-03-20 05:00:00 18.3 22 Este 47 Este 0 1015.7 -1 75
2020-03-20 04:00:00 18.3 18 Sudeste 37 Este 0 1015.9 -1.6 77
2020-03-20 03:00:00 18.4 19 Este 43 Este 0 1016.7 -1.3 76
2020-03-20 02:00:00 18.4 23 Este 48 Este 0 1016.7 -1.3 73
2020-03-20 01:00:00 18.5 15 Sudeste 45 Este 0 1017.5 -0.5 71
2020-03-20 00:00:00 18.6 16 Sudeste 44 Este 0 1018 0.3 72
2020-03-19 23:00:00 18.8 23 Sudeste 37 Este 0 1018 0.9 71
2020-03-19 22:00:00 18.8 18 Sudeste 41 Este 0 1018 1 72
2020-03-19 21:00:00 19 22 Sudeste 54 Este 0 1017.7 1.2 71
2020-03-19 20:00:00 19.2 18 Sudeste 55 Este 0 1017.1 0.5 70
2020-03-19 19:00:00 19.7 21 Sudeste 49 Este 0 1017 0.8 66
2020-03-19 18:00:00 20.7 24 Sudeste 48 Este 0 1016.5 0.5 63
2020-03-19 17:00:00 21.8 15 Este 50 Este 0 1016.6 0.8 56
2020-03-19 16:00:00 23.6 19 Sudeste 59 Este 0 1016.2 -0.6 50
2020-03-19 15:00:00 24.5 24 Sudeste 68 Este 0 1016 -1.1 45
2020-03-19 14:00:00 22.4 21 Sudeste 51 Este 0 1015.8 -1.4 43
2020-03-19 13:00:00 23.3 24 Este 58 Este 0 1016.8 0.3 44
2020-03-19 12:00:00 20.8 28 Sudeste 60 Este 1.4 1017.1 1.2 67
2020-03-19 11:00:00 18.9 12 Sur 44 Oeste 0 1017.2 2.1 74
2020-03-19 10:00:00 18.8 13 Oeste 48 Oeste 0 1016.5 1.4 74
2020-03-19 09:00:00 18.5 9 Oeste 58 Noroeste 0 1015.9 0.7 75
2020-03-19 08:00:00 18.3 12 Oeste 32 Sur 0 1015.1 -0.2 73
2020-03-19 07:00:00 17.9 10 Oeste 28 Sur 0 1015.1 0 75
2020-03-19 06:00:00 17.6 10 Sudoeste 36 Noroeste 0 1015.2 0.1 76
2020-03-19 05:00:00 17.8 12 Sudeste 37 Sur 0 1015.3 0 68
2020-03-19 04:00:00 17.9 10 Sur 38 Oeste 0 1015.1 -0.8 67
2020-03-19 03:00:00 17.9 14 Sudoeste 47 Sur 0 1015.1 -1.1 69
2020-03-19 02:00:00 18.1 11 Sur 40 Sudeste 0 1015.3 -1.2 67
2020-03-19 01:00:00 18.1 14 Sur 30 Norte 0 1015.9 -0.8 62
2020-03-19 00:00:00 17.9 7 Sudoeste 42 Noroeste 0 1016.2 -0.7 62
2020-03-18 23:00:00 17.7 10 Sudoeste 33 Sur 0 1016.5 0.5 59
2020-03-18 22:00:00 17.6 10 Sur 31 Oeste 0 1016.7 0.6 58
2020-03-18 21:00:00 17.5 17 Sudeste 36 Sudeste 0 1016.9 1.2 67
2020-03-18 20:00:00 16.5 24 Sudoeste 53 Sudoeste 0.2 1016 0.3 73
2020-03-18 19:00:00 18.9 11 Sur 33 Sur 0 1016.1 0.1 61
2020-03-18 18:00:00 20.9 13 Este 46 Sur 0 1015.7 -0.5 50
2020-03-18 17:00:00 21.2 14 Sudeste 42 Sur 0 1015.7 -1.1 52
2020-03-18 16:00:00 22.1 14 Sur 47 Sudeste 0 1016 -1.2 47
2020-03-18 15:00:00 20.6 14 Sur 34 Sudeste 0 1016.2 -1.4 53
2020-03-18 14:00:00 19.6 11 Sudoeste 31 Sudeste 0 1016.8 -1.3 58
2020-03-18 13:00:00 20.3 14 Sur 32 Este 0 1017.2 -1 52
2020-03-18 12:00:00 20.9 12 Sudeste 46 Este 0 1017.6 -0.3 50
2020-03-18 11:00:00 20.5 12 Sudeste 37 Este 0 1018.1 0.5 50
2020-03-18 10:00:00 19.6 14 Este 38 Este 0 1018.2 1.1 48
2020-03-18 09:00:00 19 19 Sudeste 47 Este 0 1017.9 1.1 57
2020-03-18 08:00:00 16.7 20 Este 45 Este 0 1017.6 0.8 62
2020-03-18 07:00:00 16.4 18 Sudeste 47 Este 0 1017.1 0.3 69
2020-03-18 06:00:00 16.3 25 Este 49 Este 0 1016.8 -0.4 67
2020-03-18 05:00:00 16.2 22 Este 70 Este 0 1016.8 -0.9 62
2020-03-18 04:00:00 15.9 22 Sudeste 68 Este 0 1016.8 -1.3 65
2020-03-18 03:00:00 16.6 21 Este 52 Este 0 1017.2 -1.5 62
2020-03-18 02:00:00 16.4 26 Este 48 Este 0 1017.7 -1.7 66
2020-03-18 01:00:00 15.8 25 Este 56 Este 0.2 1018.1 -1.3 69
2020-03-18 00:00:00 15.4 22 Este 54 Este 0 1018.7 0.1 80
2020-03-17 23:00:00 15.8 29 Sudeste 62 Este 0 1019.4 1.3 76
2020-03-17 22:00:00 17 22 Este 58 Este 0 1019.4 1.7 57
2020-03-17 21:00:00 17.4 30 Este 54 Este 0 1018.6 1.1 61
2020-03-17 20:00:00 17.7 23 Sudeste 63 Este 0 1018.1 0.5 58
2020-03-17 19:00:00 18.9 26 Este 54 Este 0 1017.7 -0.1 46
2020-03-17 18:00:00 20.7 24 Este 60 Este 0 1017.5 0.3 41
2020-03-17 17:00:00 21.6 26 Este 57 Este 0 1017.6 -0.6 44
2020-03-17 16:00:00 21.1 30 Nordeste 76 Este 0 1017.8 -1 51
2020-03-17 15:00:00 23.3 33 Este 63 Este 0 1017.2 -2.3 45
2020-03-17 14:00:00 22.4 25 Nordeste 63 Este 0 1018.2 -1.7 41
2020-03-17 13:00:00 22.8 31 Este 55 Este 0 1018.8 -1.4 49
2020-03-17 12:00:00 21.4 22 Este 50 Este 0 1019.5 -0.1 46
2020-03-17 11:00:00 20.5 14 Este 42 Este 0 1019.9 0.9 45
2020-03-17 10:00:00 16.9 19 Nordeste 55 Este 0 1020.2 1.7 62
2020-03-17 09:00:00 16.9 22 Este 56 Este 0 1019.6 1.2 60
2020-03-17 08:00:00 16.1 17 Este 53 Este 0 1019 0.8 63
2020-03-17 07:00:00 16.4 20 Este 52 Este 0 1018.5 0.5 54
2020-03-17 06:00:00 16.1 24 Este 48 Este 0 1018.4 0.2 64
2020-03-17 05:00:00 15.5 22 Nordeste 46 Este 0 1018.2 -0.3 71
2020-03-17 04:00:00 16.2 24 Este 49 Este 0 1018 -0.8 59
2020-03-17 03:00:00 16.9 19 Este 53 Este 0 1018.2 -0.6 54
2020-03-17 02:00:00 17 22 Este 60 Este 0 1018.5 -0.8 54
2020-03-17 01:00:00 17.3 23 Este 49 Este 0 1018.8 -0.6 57
2020-03-17 00:00:00 17.7 25 Este 63 Este 0 1018.8 -0.2 56
2020-03-16 23:00:00 17.7 26 Este 54 Este 0 1019.3 1.5 59
2020-03-16 22:00:00 17.5 23 Este 55 Este 0 1019.4 1.4 65
2020-03-16 21:00:00 17.8 26 Este 66 Este 0 1019 1 68
2020-03-16 20:00:00 18 29 Este 68 Este 0 1017.8 0.1 69
2020-03-16 19:00:00 18.6 27 Este 64 Este 0 1018 0.5 65
2020-03-16 18:00:00 20.4 26 Este 67 Este 0 1018 0.3 56
2020-03-16 17:00:00 20.3 36 Este 72 Este 0 1017.7 -0.8 61
2020-03-16 16:00:00 23 33 Este 62 Este 0 1017.5 -1.9 49
2020-03-16 15:00:00 24.3 28 Este 61 Este 0 1017.7 -1.3 42
2020-03-16 14:00:00 24.5 21 Este 54 Este 0 1018.5 -1.3 36
2020-03-16 13:00:00 24.5 28 Este 71 Este 0 1019.4 -0.3 36
2020-03-16 12:00:00 22.9 35 Este 62 Este 0 1019 -0.1 45
2020-03-16 11:00:00 21.9 27 Este 59 Este 0 1019.8 1.6 43
2020-03-16 10:00:00 18.9 25 Este 56 Este 0 1019.7 1.8 58
2020-03-16 09:00:00 18.1 25 Este 57 Sudeste 0 1019.1 1.4 66
2020-03-16 08:00:00 17.8 28 Este 57 Este 0 1018.2 0.8 67
2020-03-16 07:00:00 17.5 22 Sudeste 51 Este 0 1017.9 0.1 66
2020-03-16 06:00:00 17.5 23 Este 57 Este 0 1017.7 -0.2 64
2020-03-16 05:00:00 17.6 19 Este 45 Este 0 1017.4 -1 71
2020-03-16 04:00:00 17.6 20 Este 40 Este 0 1017.8 -0.6 70
2020-03-16 03:00:00 17.3 20 Sudeste 61 Este 0 1017.9 -1 79
2020-03-16 02:00:00 17.9 15 Este 55 Este 0 1018.4 -0.2 71
2020-03-16 01:00:00 18.1 21 Este 42 Este 0 1018.4 0 68
2020-03-16 00:00:00 17.6 20 Este 44 Este 0 1018.9 0.8 67
2020-03-15 23:00:00 17.4 24 Este 44 Este 0.2 1018.6 1.3 71
2020-03-15 22:00:00 18 21 Este 46 Sudeste 0 1018.4 1.7 66
2020-03-15 21:00:00 18.2 21 Este 42 Este 0 1018.1 1.5 59
2020-03-15 20:00:00 17.8 29 Sudeste 55 Este 0 1017.3 0.3 68
2020-03-15 19:00:00 18.1 26 Sudeste 59 Este 0 1016.7 0 69
2020-03-15 18:00:00 19 25 Sudeste 52 Este 0 1016.6 -0.1 63
2020-03-15 17:00:00 18.6 24 Sudeste 55 Este 1.2 1017 -0.3 77
2020-03-15 16:00:00 23.5 21 Sudeste 49 Sudeste 0 1016.7 -1.4 49
2020-03-15 15:00:00 23.1 19 Sur 58 Este 0 1016.7 -2 42
2020-03-15 14:00:00 25.1 22 Sudeste 41 Este 0 1017.3 -1.2 38
2020-03-15 13:00:00 24.6 21 Este 48 Este 0 1018.1 -0.5 40
2020-03-15 12:00:00 23.5 18 Este 42 Este 0 1018.7 0.4 39
2020-03-15 11:00:00 22.1 18 Este 48 Nordeste 0 1018.5 0.9 43
2020-03-15 10:00:00 20.3 17 Este 40 Este 0 1018.6 1.7 48
2020-03-15 09:00:00 19 21 Este 41 Este 0 1018.3 1.7 57
2020-03-15 08:00:00 17.8 17 Este 39 Este 0 1017.6 1.3 60
2020-03-15 07:00:00 16.9 13 Este 32 Este 0 1016.9 0.8 62
2020-03-15 06:00:00 17.3 16 Este 34 Este 0 1016.6 0 65
2020-03-15 05:00:00 17.3 17 Este 49 Este 0 1016.3 -0.9 65
2020-03-15 04:00:00 17.4 20 Este 41 Este 0 1016.1 -1.5 66
2020-03-15 03:00:00 17.4 16 Este 40 Este 0 1016.6 -1.2 66
2020-03-15 02:00:00 17.4 19 Este 42 Este 0 1017.2 -0.5 66
2020-03-15 01:00:00 18 20 Este 41 Este 0 1017.6 -0.2 61
2020-03-15 00:00:00 17.8 19 Este 41 Este 0 1017.8 0.3 56
2020-03-14 23:00:00 18 21 Este 45 Este 0 1017.7 0.5 55
2020-03-14 22:00:00 18.1 22 Este 45 Este 0 1017.8 1.4 53
2020-03-14 21:00:00 18.1 21 Este 49 Este 0 1017.5 1.3 55
2020-03-14 20:00:00 18.8 18 Este 49 Este 0 1017.2 1.3 49
2020-03-14 19:00:00 19.9 21 Este 54 Este 0 1016.4 0.2 43
2020-03-14 18:00:00 20.8 12 Sudeste 50 Este 0 1016.2 -0.1 45
2020-03-14 17:00:00 22.1 17 Sudeste 61 Este 0 1015.9 -1.1 45
2020-03-14 16:00:00 21.7 15 Nordeste 51 Este 0 1016.2 -1.4 47
2020-03-14 15:00:00 22 18 Sudeste 61 Este 0 1016.3 -1.6 49
2020-03-14 14:00:00 22.4 20 Nordeste 61 Este 0 1017 -0.8 51
2020-03-14 13:00:00 22 22 Nordeste 62 Nordeste 0 1017.6 0.1 55
2020-03-14 12:00:00 21.9 27 Nordeste 54 Nordeste 0 1017.9 0.5 53
2020-03-14 11:00:00 21.2 25 Nordeste 52 Este 0 1017.8 0.8 57
2020-03-14 10:00:00 20.7 21 Nordeste 58 Nordeste 0 1017.5 0.8 51
2020-03-14 09:00:00 19.2 31 Nordeste 64 Nordeste 0 1017.4 0.9 52
2020-03-14 08:00:00 18.1 35 Nordeste 60 Nordeste 0 1017 0.6 59
2020-03-14 07:00:00 17.8 36 Nordeste 56 Nordeste 0 1016.7 0 66
2020-03-14 06:00:00 17.8 30 Nordeste 53 Nordeste 0 1016.5 -0.6 68
2020-03-14 05:00:00 17.9 24 Nordeste 50 Nordeste 0 1016.4 -1.2 66
2020-03-14 04:00:00 17.9 32 Nordeste 57 Nordeste 0 1016.7 -1.4 69
2020-03-14 03:00:00 18.1 23 Nordeste 55 Nordeste 0 1017.1 -1.2 73
2020-03-14 02:00:00 18.2 34 Nordeste 56 Nordeste 0 1017.6 -1 73
2020-03-14 01:00:00 18.3 35 Nordeste 61 Nordeste 0 1018.1 -0.4 73
2020-03-14 00:00:00 18.8 27 Nordeste 64 Nordeste 0 1018.3 0.2 65
2020-03-13 23:00:00 18.6 35 Nordeste 65 Nordeste 0 1018.6 1.1 65
2020-03-13 22:00:00 18.6 34 Nordeste 62 Nordeste 0 1018.5 1.4 67
2020-03-13 21:00:00 18.6 38 Nordeste 58 Nordeste 0 1018.1 1.3 68
2020-03-13 20:00:00 18.7 39 Nordeste 63 Nordeste 0 1017.5 0.6 70
2020-03-13 19:00:00 19.1 39 Nordeste 58 Nordeste 0 1017.1 0.4 67
2020-03-13 18:00:00 19.7 34 Nordeste 66 Nordeste 0 1016.8 0.3 64
2020-03-13 17:00:00 20 33 Nordeste 60 Nordeste 0 1016.9 0 63
2020-03-13 16:00:00 20.4 35 Nordeste 61 Norte 0 1016.7 -0.9 65
2020-03-13 15:00:00 21.7 31 Nordeste 62 Norte 0 1016.5 -1.7 59
2020-03-13 14:00:00 22.8 31 Nordeste 54 Nordeste 0 1016.9 -1.5 55
2020-03-13 13:00:00 23.3 22 Norte 36 Norte 0 1017.6 -0.7 53
2020-03-13 12:00:00 22.9 17 Norte 37 Norte 0 1018.2 0.1 53
2020-03-13 11:00:00 21.5 20 Nordeste 44 Norte 0 1018.4 0.9 58
2020-03-13 10:00:00 20.4 22 Nordeste 39 Norte 0 1018.3 1.2 59
2020-03-13 09:00:00 18.9 7 Este 28 Norte 0 1018.1 1.3 65
2020-03-13 08:00:00 15.3 10 Este 13 Este 0 1017.5 0.9 77
2020-03-13 07:00:00 15.3 9 Sudeste 34 Norte 0 1017.1 0.8 75
2020-03-13 06:00:00 15.7 13 Nordeste 32 Nordeste 0 1016.8 0.2 75
2020-03-13 05:00:00 16.4 9 Este 29 Nordeste 0 1016.6 -0.4 74
2020-03-13 04:00:00 17 9 Este 33 Nordeste 0 1016.3 -1.1 74
2020-03-13 03:00:00 17.7 14 Nordeste 37 Nordeste 0 1016.6 -0.9 71
2020-03-13 02:00:00 18.2 8 Este 37 Nordeste 0 1017 -0.4 71
2020-03-13 01:00:00 18.6 26 Nordeste 40 Nordeste 0 1017.4 0.3 75
2020-03-13 00:00:00 18.9 25 Nordeste 41 Nordeste 0 1017.5 0.8 74
2020-03-12 23:00:00 19.4 23 Nordeste 33 Nordeste 0 1017.4 1.3 74
2020-03-12 22:00:00 19.6 11 Nordeste 19 Nordeste 0 1017.1 1.4 66
2020-03-12 21:00:00 21.3 10 Nordeste 21 Nordeste 0 1016.7 1.1 57
2020-03-12 20:00:00 22.6 5 Este 20 Nordeste 0 1016.1 0.6 47
2020-03-12 19:00:00 24.7 12 Norte 26 Nordeste 0 1015.7 0.2 44
2020-03-12 18:00:00 26 17 Norte 30 Nordeste 0 1015.6 -0.2 38
2020-03-12 17:00:00 24.7 18 Norte 43 Norte 0 1015.5 -0.8 57
2020-03-12 16:00:00 25.7 19 Nordeste 36 Nordeste 0 1015.5 -1.4 54
2020-03-12 15:00:00 26.1 16 Nordeste 30 Norte 0 1015.8 -1.4 50
2020-03-12 14:00:00 26.1 11 Norte 28 Oeste 0 1016.3 -0.9 47
2020-03-12 13:00:00 24.8 15 Noroeste 27 Noroeste 0 1016.9 -0.1 44
2020-03-12 12:00:00 24.1 17 Oeste 24 Oeste 0 1017.2 0.6 42
2020-03-12 11:00:00 22.1 15 Oeste 21 Oeste 0 1017.2 1.4 62
2020-03-12 10:00:00 22.2 8 Oeste 12 Noroeste 0 1017 1.8 44
2020-03-12 09:00:00 17.4 3 Este 9 Este 0 1016.6 1.7 38
2020-03-12 08:00:00 11.7 6 Este 16 Sudeste 0 1015.8 1.2 58
2020-03-12 07:00:00 10.4 7 Este 14 Este 0 1015.2 0.2 62
2020-03-12 06:00:00 11.1 10 Sudeste 14 Sudeste 0 1014.9 -0.4 62
2020-03-12 05:00:00 11.2 3 Este 14 Sudeste 0 1014.6 -1.4 49
2020-03-12 04:00:00 10.9 4 Este 10 Este 0 1015 -1.2 48
2020-03-12 03:00:00 12.1 5 Sudeste 8 Sudeste 0 1015.3 -1.3 43
2020-03-12 02:00:00 12.6 5 Este 9 Sur 0 1016 -0.8 41
2020-03-12 01:00:00 14.1 7 Este 11 Nordeste 0 1016.2 -0.6 40
2020-03-12 00:00:00 14 5 Este 12 Este 0 1016.6 0.2 45
2020-03-11 23:00:00 15.2 8 Este 12 Este 0 1016.8 1.3 50
2020-03-11 22:00:00 17.3 0 Calma 11 Sudeste 0 1016.8 1.7 61
2020-03-11 21:00:00 20.6 10 Noroeste 15 Noroeste 0 1016.4 1.2 70
2020-03-11 20:00:00 22.8 3 Este 14 Oeste 0 1015.5 0.3 37
2020-03-11 19:00:00 25.4 11 Oeste 16 Oeste 0 1015.1 -0.3 38
2020-03-11 18:00:00 26.9 11 Oeste 20 Oeste 0 1015.2 -0.6 36
2020-03-11 17:00:00 26.5 16 Oeste 23 Oeste 0 1015.2 -1.3 38
2020-03-11 16:00:00 25.8 15 Oeste 22 Oeste 0 1015.4 -1.7 45
2020-03-11 15:00:00 21.6 15 Oeste 26 Oeste 0 1015.8 -1.5 68
2020-03-11 14:00:00 22.4 18 Noroeste 26 Noroeste 0 1016.5 -1.2 68
2020-03-11 13:00:00 21.6 14 Noroeste 31 Oeste 0 1017.1 -0.2 68
2020-03-11 12:00:00 21.3 17 Noroeste 24 Noroeste 0 1017.3 0.2 70
2020-03-11 11:00:00 19.5 5 Oeste 19 Oeste 0 1017.7 1 72
2020-03-11 10:00:00 18.2 0 Calma 13 Este 0 1017.3 0.9 75
2020-03-11 09:00:00 14.9 6 Sudeste 10 Este 0 1017.1 0.7 72
2020-03-11 08:00:00 13 6 Este 11 Este 0 1016.7 0.4 75
2020-03-11 07:00:00 11.7 9 Este 10 Este 0 1016.4 0.1 80
2020-03-11 06:00:00 11.4 6 Este 11 Sudeste 0 1016.4 -0.1 75
2020-03-11 05:00:00 10.8 5 Este 12 Sudeste 0 1016.3 -0.5 63
2020-03-11 04:00:00 10.9 5 Sudeste 11 Este 0 1016.3 -1 58
2020-03-11 03:00:00 10.5 4 Este 9 Este 0 1016.5 -1.2 63
2020-03-11 02:00:00 11.6 6 Este 9 Sudeste 0 1016.8 -1.4 63
2020-03-11 01:00:00 13 4 Este 7 Este 0 1017.3 -0.7 61
2020-03-11 00:00:00 14.5 8 Este 10 Este 0 1017.7 -0.1 62
2020-03-10 23:00:00 15.5 3 Este 6 Nordeste 0 1018.2 0.8 61
2020-03-10 22:00:00 16.9 3 Norte 9 Sudeste 0 1018 0.8 62
2020-03-10 21:00:00 18.4 4 Este 6 Este 0 1017.8 0.8 59
2020-03-10 20:00:00 20 5 Este 10 Sudoeste 0 1017.4 0.4 58
2020-03-10 19:00:00 22.1 7 Sudoeste 27 Norte 0 1017.2 -0.1 52
2020-03-10 18:00:00 24.3 10 Norte 36 Norte 0 1017 -1 48
2020-03-10 17:00:00 23.5 24 Norte 38 Norte 0 1017 -1.9 57
2020-03-10 16:00:00 24.1 23 Norte 40 Norte 0 1017.3 -2.4 54
2020-03-10 15:00:00 25.4 15 Norte 27 Norte 0 1018 -2.2 51
2020-03-10 14:00:00 23.8 11 Noroeste 26 Noroeste 0 1018.9 -1.3 54
2020-03-10 13:00:00 22.9 14 Noroeste 31 Noroeste 0 1019.7 -0.5 60
2020-03-10 12:00:00 22.2 15 Noroeste 24 Noroeste 0 1020.2 0.6 58
2020-03-10 11:00:00 21.5 15 Oeste 23 Oeste 0 1020.2 1.4 59
2020-03-10 10:00:00 20.8 12 Oeste 18 Oeste 0 1020.2 1.7 57
2020-03-10 09:00:00 16.9 5 Este 9 Este 0 1019.6 1.5 36
2020-03-10 08:00:00 10.9 6 Este 12 Este 0 1018.8 1.2 52
2020-03-10 07:00:00 10.5 10 Este 12 Este 0 1018.5 0.6 52
2020-03-10 06:00:00 10.9 5 Sudeste 13 Sudeste 0 1018.1 -0.2 50
2020-03-10 05:00:00 12.5 13 Sudeste 17 Este 0 1017.6 -1.4 43
2020-03-10 04:00:00 17 18 Nordeste 32 Norte 0 1017.9 -1.7 46
2020-03-10 03:00:00 13.7 8 Este 15 Este 0 1018.3 -1.5 44
2020-03-10 02:00:00 14.3 10 Este 15 Sudeste 0 1019 -1 45
2020-03-10 01:00:00 16 7 Este 31 Nordeste 0 1019.6 -0.5 41
2020-03-10 00:00:00 15.3 4 Sur 10 Este 0 1019.8 -0.1 46